Marietta, Pennsylvania
Current Conditions -  °F | °C
As of 5:53 AM on Wednesday 22 Oct 2014 (Local Time) from KLNS Reporting Station
Overcast Overcast  
Wind Chill: 54°   Ceiling: 2400
Heat Index: 54°   Visibility: 10mi
Dew Point: 48°   Wind: 10mph
Humidity: 80%   Direction: 10°N
Pressure: 29.9"   Gusts: NA
Location:  40.06°N, 76.55°W
Report Text: KLNS 220953Z 01009KT 10SM OVC024 12/09 A2990 RMK AO2 SLP123 T01220089
Loading
Personal Weather Stations






























Interactive Weather Map
Tropical Storm Tracking
New forecast layout! Learn more

10-Day Weather Forecast

Advertisements
Track Severe Weather on mobile